Time;durP1;ratioP1;P1;durP2;ratioP2;P2;SDS_P1;SDS_P2;PMS_P1;PMS_P2;Temp;Humidity;BMP_temperature;BMP_pressure;BME280_temperature;BME280_humidity;BME280_pressure;Samples;Min_cycle;Max_cycle;Signal;HPM_P1;HPM_P2
2021/04/28 00:00:26;;;;;;;13.23;10.80;;;8.40;99.90;;;9.10;41.99;93015.59;5038983;28;20348;-68
2021/04/28 00:02:53;;;;;;;15.63;10.80;;;8.40;99.90;;;9.07;41.67;93002.13;5059010;28;20201;-69
2021/04/28 00:05:23;;;;;;;11.43;10.00;;;8.40;99.90;;;9.11;41.75;93003.97;5091860;28;20199;-68
2021/04/28 00:07:51;;;;;;;11.83;10.13;;;8.50;99.90;;;9.07;42.21;93013.50;5057883;28;20279;-68
2021/04/28 00:13:59;;;;;;;11.97;10.07;;;8.50;99.90;;;9.09;42.16;93014.03;5089828;28;20234;-67
2021/04/28 00:16:28;;;;;;;14.20;10.63;;;8.50;99.90;;;9.12;42.48;93002.13;5060310;28;20198;-70
2021/04/28 00:18:57;;;;;;;12.03;10.17;;;8.50;99.90;;;9.13;42.71;93007.09;5055333;28;20182;-68
2021/04/28 00:21:26;;;;;;;13.23;10.77;;;8.60;99.90;;;9.15;42.97;92994.41;5071939;28;20225;-71
2021/04/28 00:23:57;;;;;;;14.67;11.23;;;8.60;99.90;;;9.17;42.59;93002.06;5056817;28;20223;-68
2021/04/28 00:26:25;;;;;;;13.10;11.20;;;8.50;99.90;;;9.19;42.64;93006.03;5052713;28;20278;-67
2021/04/28 00:28:58;;;;;;;12.43;9.93;;;8.60;99.90;;;9.35;43.39;93001.38;5054466;28;20221;-67
2021/04/28 00:31:27;;;;;;;11.37;10.17;;;8.70;99.90;;;9.42;42.70;92993.13;5047663;28;20719;-67
2021/04/28 00:33:53;;;;;;;12.47;10.60;;;8.70;99.90;;;9.50;43.33;92992.53;5054560;28;20198;-68
2021/04/28 00:36:19;;;;;;;12.93;10.50;;;8.80;99.90;;;9.56;43.19;92989.53;5056999;28;20207;-68
2021/04/28 00:38:46;;;;;;;12.60;10.37;;;8.90;99.90;;;9.66;43.33;92993.94;5089871;28;20728;-68
2021/04/28 00:41:12;;;;;;;11.33;10.13;;;9.00;99.90;;;9.62;43.51;92984.97;5081026;28;20719;-67
2021/04/28 00:47:19;;;;;;;15.20;9.50;;;9.00;99.90;;;9.76;43.89;92980.59;5072467;28;20229;-67
2021/04/28 00:49:45;;;;;;;12.53;9.80;;;9.10;99.90;;;9.78;44.06;92981.09;5039109;28;20210;-67
2021/04/28 00:52:13;;;;;;;15.57;11.23;;;9.10;99.90;;;9.77;43.52;92975.00;5053006;28;20211;-68
2021/04/28 00:54:42;;;;;;;11.73;10.53;;;9.20;99.90;;;9.79;43.99;92977.38;5088454;28;20557;-67
2021/04/28 00:57:08;;;;;;;13.37;11.70;;;9.20;99.90;;;9.86;44.22;92977.84;5088297;28;20185;-70
2021/04/28 00:59:37;;;;;;;12.03;10.00;;;9.20;99.90;;;9.94;44.30;92979.84;5113734;27;20716;-70
2021/04/28 01:02:03;;;;;;;11.87;10.53;;;9.30;99.90;;;9.94;44.20;92977.19;5066849;28;20196;-70
2021/04/28 01:04:34;;;;;;;12.67;10.73;;;9.30;99.90;;;9.94;44.55;92971.91;5075158;28;20595;-69
2021/04/28 01:07:05;;;;;;;12.73;10.37;;;9.80;99.90;;;9.98;44.21;92964.97;5069767;28;20199;-72
2021/04/28 01:09:34;;;;;;;11.67;10.43;;;9.40;99.90;;;9.96;44.79;92974.28;5066078;28;20798;-68
2021/04/28 01:12:03;;;;;;;17.90;10.27;;;9.20;99.90;;;10.07;44.27;92973.09;5066147;28;20680;-68
2021/04/28 01:14:32;;;;;;;14.43;10.80;;;9.40;99.90;;;10.07;44.78;92963.28;5055226;28;20243;-69
2021/04/28 01:16:59;;;;;;;13.37;9.63;;;9.80;99.90;;;10.11;44.78;92961.63;5061455;28;20194;-69
2021/04/28 01:19:29;;;;;;;11.50;10.30;;;9.50;99.90;;;10.28;44.88;92961.19;5059674;28;20580;-70
2021/04/28 01:21:56;;;;;;;13.00;9.57;;;9.60;99.90;;;10.27;44.76;92963.03;5060117;28;20550;-68
2021/04/28 01:24:22;;;;;;;13.97;9.43;;;9.60;99.90;;;10.30;45.15;92972.31;5045977;28;20189;-68
2021/04/28 01:26:59;;;;;;;11.73;10.43;;;9.70;99.90;;;10.31;45.22;92965.16;5058634;28;20192;-69
2021/04/28 01:29:26;;;;;;;12.50;10.13;;;9.70;99.90;;;10.44;45.01;92980.31;5063906;28;20687;-68
2021/04/28 01:31:53;;;;;;;10.87;9.60;;;9.80;99.90;;;10.49;45.08;92974.94;5071603;28;20681;-70
2021/04/28 01:34:22;;;;;;;10.87;9.77;;;9.90;99.90;;;10.47;45.10;92974.47;5087582;28;20256;-69
2021/04/28 01:36:48;;;;;;;11.70;10.23;;;9.90;99.90;;;10.44;45.10;92977.69;5072896;28;20207;-70
2021/04/28 01:39:17;;;;;;;12.97;10.03;;;9.90;99.90;;;10.36;45.17;92970.34;5055726;28;20200;-71
2021/04/28 01:41:46;;;;;;;15.00;9.77;;;9.80;99.90;;;10.21;45.44;92982.72;5062771;28;20207;-70
2021/04/28 01:44:22;;;;;;;11.27;10.07;;;9.70;99.90;;;10.26;45.69;92969.44;5068851;28;20193;-72
2021/04/28 01:46:54;;;;;;;12.30;11.00;;;9.70;99.90;;;10.22;45.58;92971.06;5062181;28;20178;-68
2021/04/28 01:49:21;;;;;;;11.47;9.93;;;9.70;99.90;;;10.33;45.46;92963.00;5067143;28;20186;-68
2021/04/28 01:51:47;;;;;;;14.40;10.50;;;9.70;99.90;;;10.27;45.62;92968.34;5057073;28;20589;-69
2021/04/28 01:54:22;;;;;;;13.73;10.63;;;9.70;99.90;;;10.29;45.70;92968.84;5072491;28;20175;-69
2021/04/28 01:56:51;;;;;;;11.63;10.43;;;9.70;99.90;;;10.26;45.59;92968.63;5087846;28;20186;-70
2021/04/28 01:59:22;;;;;;;13.23;11.23;;;9.70;99.90;;;10.28;46.03;92961.97;5075088;28;20192;-70
2021/04/28 02:01:56;;;;;;;12.63;10.67;;;9.70;99.90;;;10.38;45.69;92968.19;5037814;28;20745;-68
2021/04/28 02:04:23;;;;;;;11.77;10.17;;;9.70;99.90;;;10.41;45.83;92965.00;5094943;28;20223;-69
2021/04/28 02:06:51;;;;;;;12.83;9.63;;;9.80;99.90;;;10.39;46.63;92956.53;5053057;28;20202;-69
2021/04/28 02:09:20;;;;;;;11.50;10.07;;;10.10;99.90;;;10.36;46.28;92963.22;5043851;28;20182;-69
2021/04/28 02:11:46;;;;;;;14.00;10.03;;;9.80;99.90;;;10.40;46.32;92953.63;5074887;28;20741;-69
2021/04/28 02:14:20;;;;;;;11.23;9.77;;;9.90;99.90;;;10.43;46.35;92952.25;5081802;28;20484;-71
2021/04/28 02:16:48;;;;;;;11.93;10.00;;;9.90;99.90;;;10.44;46.55;92956.50;5064034;28;20177;-68
2021/04/28 02:19:16;;;;;;;11.07;9.97;;;9.90;99.90;;;10.37;46.60;92962.16;5062119;28;20256;-68
2021/04/28 02:21:50;;;;;;;11.57;10.43;;;9.80;99.90;;;10.41;46.67;92957.81;5069599;28;20170;-68
2021/04/28 02:24:16;;;;;;;11.07;9.87;;;9.80;99.90;;;10.46;46.69;92957.78;5066329;28;20208;-68
2021/04/28 02:26:44;;;;;;;11.03;9.47;;;9.90;99.90;;;10.39;46.60;92948.59;5059566;28;20187;-69
2021/04/28 02:29:14;;;;;;;11.83;10.27;;;10.00;99.90;;;10.28;46.51;92946.09;5090997;28;20202;-68
2021/04/28 02:31:40;;;;;;;13.40;9.90;;;9.80;99.90;;;10.11;46.54;92948.41;5105254;28;20259;-69
2021/04/28 02:34:07;;;;;;;11.33;9.73;;;9.60;99.90;;;10.14;46.63;92939.91;5091742;28;20674;-71
2021/04/28 02:36:47;;;;;;;10.63;9.53;;;9.60;99.90;;;10.18;47.03;92945.44;5092956;28;20250;-68
2021/04/28 02:39:26;;;;;;;11.37;9.90;;;9.60;99.90;;;10.27;46.79;92939.22;5075189;28;20695;-69
2021/04/28 02:41:54;;;;;;;11.80;9.87;;;9.70;99.90;;;10.15;47.10;92936.22;5082665;28;20184;-69
2021/04/28 02:44:24;;;;;;;11.07;9.97;;;9.60;99.90;;;10.07;47.15;92938.69;5059928;28;20214;-68
2021/04/28 02:46:58;;;;;;;10.57;9.57;;;9.60;99.90;;;10.10;47.00;92948.69;5052116;28;20587;-68
2021/04/28 02:49:33;;;;;;;11.57;10.07;;;9.50;99.90;;;10.04;47.48;92953.25;5070945;28;20188;-68
2021/04/28 02:52:00;;;;;;;11.50;9.80;;;9.50;99.90;;;10.10;47.67;92946.06;5071427;28;20211;-69
2021/04/28 02:54:28;;;;;;;10.87;9.77;;;9.50;99.90;;;9.99;47.57;92945.38;5078094;28;20636;-68
2021/04/28 02:56:57;;;;;;;11.67;9.93;;;9.40;99.90;;;9.95;47.65;92939.09;5081426;28;20224;-68
2021/04/28 02:59:24;;;;;;;12.37;10.67;;;9.40;99.90;;;9.87;47.67;92937.06;5075807;28;20197;-69
2021/04/28 03:01:51;;;;;;;11.53;10.13;;;9.30;99.90;;;9.86;47.48;92946.09;5072547;28;20704;-68
2021/04/28 03:04:19;;;;;;;14.83;11.00;;;9.30;99.90;;;9.82;47.83;92941.63;5067356;28;20213;-69
2021/04/28 03:06:45;;;;;;;11.53;10.33;;;9.30;99.90;;;9.83;48.11;92924.69;5078426;28;20188;-69
2021/04/28 03:09:17;;;;;;;11.27;10.07;;;9.30;99.90;;;9.91;47.70;92929.34;5064797;28;20328;-69
2021/04/28 03:11:43;;;;;;;12.77;10.50;;;9.40;99.90;;;9.95;47.92;92931.16;5073063;28;20199;-69
2021/04/28 03:14:18;;;;;;;14.97;11.00;;;9.40;99.90;;;9.94;48.27;92931.44;5112835;28;20173;-69
2021/04/28 03:16:46;;;;;;;11.40;10.30;;;9.40;99.90;;;9.91;47.89;92926.69;5091142;28;20209;-70
2021/04/28 03:19:12;;;;;;;12.17;9.87;;;9.40;99.90;;;9.92;47.99;92922.97;5071002;28;20657;-70
2021/04/28 03:21:48;;;;;;;11.80;10.23;;;9.40;99.90;;;9.99;48.50;92937.44;5080863;28;20761;-71
2021/04/28 03:24:16;;;;;;;13.03;10.70;;;9.40;99.90;;;9.95;48.57;92949.66;5085711;28;20187;-71
2021/04/28 03:26:43;;;;;;;12.63;10.80;;;9.40;99.90;;;9.98;48.31;92949.09;5068746;28;20186;-71
2021/04/28 03:29:11;;;;;;;11.03;9.70;;;9.40;99.90;;;10.00;48.28;92952.28;5082112;28;20341;-68
2021/04/28 03:31:40;;;;;;;11.40;10.27;;;9.40;99.90;;;10.04;48.50;92949.84;5073008;28;20667;-69
2021/04/28 03:34:09;;;;;;;11.47;10.27;;;9.40;99.90;;;9.81;48.87;92946.13;5058651;28;20182;-68
2021/04/28 03:36:38;;;;;;;12.03;10.50;;;9.50;99.90;;;9.80;48.33;92947.22;5092209;27;20206;-68
2021/04/28 03:39:05;;;;;;;12.43;10.20;;;9.30;99.90;;;9.80;48.67;92961.22;5088818;28;20208;-68
2021/04/28 03:41:32;;;;;;;13.37;10.30;;;9.30;99.90;;;9.74;48.73;92956.25;5090079;28;20676;-69
2021/04/28 03:43:58;;;;;;;13.93;10.40;;;9.20;99.90;;;9.77;48.82;92963.63;5093675;28;20301;-68
2021/04/28 03:46:26;;;;;;;16.77;11.23;;;9.20;99.90;;;9.73;49.01;92952.06;5093047;28;20843;-68
2021/04/28 03:48:52;;;;;;;12.17;10.40;;;9.20;99.90;;;9.68;48.85;92968.78;5089310;28;20189;-70
2021/04/28 03:51:20;;;;;;;12.53;10.40;;;9.50;99.90;;;9.80;48.93;92955.91;5100618;27;20550;-68
2021/04/28 03:53:49;;;;;;;11.67;9.87;;;9.30;99.90;;;9.87;49.21;92960.09;5080447;28;20194;-68
2021/04/28 03:56:17;;;;;;;12.63;10.87;;;9.40;99.90;;;9.86;49.30;92959.31;5087267;28;20517;-69
2021/04/28 03:58:43;;;;;;;13.87;10.80;;;9.20;99.90;;;9.60;49.15;92964.09;5076714;28;20265;-69
2021/04/28 04:01:09;;;;;;;11.73;10.13;;;9.00;99.90;;;9.52;49.28;92974.50;5070377;28;20243;-69
2021/04/28 04:03:37;;;;;;;13.07;11.13;;;8.90;99.90;;;9.58;49.10;92976.03;5061108;28;20204;-69
2021/04/28 04:06:06;;;;;;;11.83;10.37;;;9.00;99.90;;;9.64;49.37;92969.59;5058706;28;20185;-69
2021/04/28 04:08:35;;;;;;;13.87;11.27;;;9.00;99.90;;;9.76;49.26;92981.41;5041818;28;20187;-71
2021/04/28 04:11:01;;;;;;;11.63;10.03;;;9.00;99.90;;;9.80;49.18;92965.75;5073726;28;20278;-68
2021/04/28 04:13:27;;;;;;;12.87;10.50;;;9.10;99.90;;;9.85;49.97;92978.91;5076595;28;20193;-69
2021/04/28 04:15:56;;;;;;;13.23;10.47;;;9.20;99.90;;;9.85;49.82;92970.97;5077297;28;20169;-69
2021/04/28 04:18:22;;;;;;;13.83;10.13;;;9.30;99.90;;;9.86;49.41;92966.47;5063847;28;20711;-68
2021/04/28 04:20:48;;;;;;;12.63;10.73;;;9.30;99.90;;;9.88;49.69;92970.41;5059603;28;20192;-69
2021/04/28 04:23:16;;;;;;;12.60;10.50;;;9.30;99.90;;;9.87;50.18;92982.03;5058697;28;20201;-68
2021/04/28 04:25:43;;;;;;;12.73;10.60;;;9.30;99.90;;;9.87;49.87;92986.56;5072656;28;20174;-68
2021/04/28 04:28:09;;;;;;;11.60;10.40;;;9.20;99.90;;;9.88;50.23;92983.63;5075127;28;20194;-68
2021/04/28 04:30:36;;;;;;;12.37;10.03;;;9.20;99.90;;;9.97;49.88;92989.88;5062808;28;20882;-69
2021/04/28 04:33:02;;;;;;;12.20;10.70;;;9.30;99.90;;;9.99;50.27;92986.94;5055352;28;20203;-69
2021/04/28 04:35:28;;;;;;;12.03;10.80;;;9.40;99.90;;;10.04;50.42;92992.97;5033212;28;20209;-67
2021/04/28 04:37:56;;;;;;;12.57;10.20;;;9.50;99.90;;;10.11;50.14;92998.69;5074843;28;20648;-68
2021/04/28 04:40:22;;;;;;;12.70;11.00;;;9.50;99.90;;;10.14;50.24;93003.47;5056197;28;20185;-67
2021/04/28 04:42:48;;;;;;;12.07;10.73;;;9.60;99.90;;;10.03;50.16;92999.34;5074575;28;20201;-69
2021/04/28 04:45:14;;;;;;;12.70;10.30;;;9.50;99.90;;;10.05;50.58;93002.47;5036666;28;20187;-67
2021/04/28 04:47:40;;;;;;;12.23;10.50;;;9.50;99.90;;;10.02;50.43;93003.06;5091689;28;20707;-67
2021/04/28 04:50:11;;;;;;;12.33;10.60;;;9.40;99.90;;;10.03;50.21;93006.50;5087731;28;20190;-68
2021/04/28 04:52:38;;;;;;;12.83;10.27;;;9.50;99.90;;;10.10;50.36;93014.88;5079572;28;20315;-69
2021/04/28 04:55:07;;;;;;;11.80;10.07;;;9.50;99.90;;;10.20;50.59;93015.59;5065288;28;20190;-68
2021/04/28 04:57:33;;;;;;;13.93;10.13;;;9.60;99.90;;;10.29;50.90;93018.38;5037978;28;20277;-67
2021/04/28 04:59:59;;;;;;;11.70;10.00;;;9.70;99.90;;;10.31;50.64;93002.22;5054688;28;20243;-69
2021/04/28 05:02:28;;;;;;;11.67;10.17;;;9.70;99.90;;;10.31;50.84;93015.47;5071724;28;20221;-69
2021/04/28 05:04:54;;;;;;;13.73;10.50;;;9.70;99.90;;;10.27;51.08;93013.34;5077843;28;20191;-69
2021/04/28 05:07:20;;;;;;;13.87;10.50;;;9.70;99.90;;;10.35;51.20;93022.53;5074230;28;20291;-68
2021/04/28 05:09:47;;;;;;;12.90;9.77;;;9.70;99.90;;;10.38;50.89;93021.97;5058562;28;20186;-68
2021/04/28 05:12:14;;;;;;;13.97;9.83;;;9.70;99.90;;;10.42;51.08;93028.28;5092120;28;20210;-69
2021/04/28 05:14:40;;;;;;;16.47;10.13;;;9.80;99.90;;;10.54;50.92;93027.88;5091913;28;20248;-70
2021/04/28 05:17:06;;;;;;;13.60;10.17;;;9.90;99.90;;;10.55;50.96;93026.78;5055876;28;20296;-68
2021/04/28 05:19:32;;;;;;;17.30;10.80;;;10.00;99.90;;;10.60;51.11;93026.72;5072694;28;20658;-68
2021/04/28 05:21:58;;;;;;;13.27;9.77;;;10.00;99.90;;;10.62;50.41;93022.72;5081441;28;20213;-68
2021/04/28 05:24:26;;;;;;;15.00;9.97;;;10.10;99.90;;;10.67;50.95;93027.16;5067413;28;20653;-69
2021/04/28 05:26:55;;;;;;;14.87;11.13;;;10.10;99.90;;;10.58;50.95;93028.84;5094469;28;20207;-68
2021/04/28 05:29:23;;;;;;;13.70;9.93;;;10.10;99.90;;;10.58;51.03;93031.50;5056389;28;20222;-68
2021/04/28 05:31:49;;;;;;;15.77;10.53;;;10.10;99.90;;;10.58;51.06;93034.94;5088750;28;20203;-68
2021/04/28 05:34:15;;;;;;;14.93;10.50;;;10.10;99.90;;;10.63;51.00;93042.03;5040681;28;20223;-68
2021/04/28 05:36:41;;;;;;;13.37;9.87;;;10.10;99.90;;;10.62;51.15;93056.38;5084228;28;20345;-67
2021/04/28 05:39:07;;;;;;;11.50;9.63;;;10.10;99.90;;;10.55;50.81;93053.28;5051772;28;20190;-68
2021/04/28 05:41:36;;;;;;;11.87;9.73;;;10.00;99.90;;;10.59;51.20;93060.38;5058888;28;20198;-67
2021/04/28 05:44:03;;;;;;;12.90;9.63;;;10.10;99.90;;;10.48;51.17;93043.03;5068156;28;20190;-71
2021/04/28 05:46:29;;;;;;;13.13;10.50;;;10.00;99.90;;;10.47;51.25;93062.66;5057869;28;20538;-69
2021/04/28 05:48:55;;;;;;;13.27;10.17;;;10.00;99.90;;;10.51;51.08;93070.84;5056052;28;20526;-68
2021/04/28 05:51:23;;;;;;;13.57;10.00;;;10.00;99.90;;;10.51;50.95;93063.66;5077363;28;20594;-67
2021/04/28 05:53:49;;;;;;;12.23;9.67;;;10.00;99.90;;;10.58;51.15;93058.00;5067247;28;20177;-67
2021/04/28 05:56:15;;;;;;;12.23;9.73;;;10.00;99.90;;;10.62;51.39;93062.44;5054465;28;20194;-68
2021/04/28 05:58:41;;;;;;;12.03;10.30;;;10.10;99.90;;;10.66;51.09;93067.97;5033663;28;20271;-67
2021/04/28 06:01:07;;;;;;;14.10;9.93;;;10.10;99.90;;;10.71;51.48;93057.31;5084792;28;20536;-68
2021/04/28 06:03:33;;;;;;;15.60;10.00;;;10.20;99.90;;;10.77;51.44;93072.88;5054334;28;20192;-68
2021/04/28 06:06:20;;;;;;;13.13;9.70;;;10.20;99.90;;;10.75;51.41;93075.00;5071619;28;20198;-67
2021/04/28 06:08:46;;;;;;;14.97;10.73;;;10.20;99.90;;;10.70;51.63;93064.47;5065452;28;20645;-68
2021/04/28 06:11:16;;;;;;;14.20;12.13;;;10.30;99.90;;;10.68;51.42;93071.13;5053757;28;20204;-67
2021/04/28 06:13:44;;;;;;;11.80;9.67;;;10.20;99.90;;;10.69;51.50;93070.06;5067729;28;20187;-72
2021/04/28 06:16:11;;;;;;;14.10;10.23;;;10.20;99.90;;;10.67;51.50;93066.91;5062666;28;20226;-71
2021/04/28 06:18:40;;;;;;;12.37;9.57;;;10.20;99.90;;;10.65;51.42;93074.34;5071049;28;20186;-71
2021/04/28 06:21:09;;;;;;;13.93;10.83;;;10.20;99.90;;;10.53;51.63;93066.81;5052529;28;20281;-74
2021/04/28 06:23:36;;;;;;;12.93;10.43;;;10.10;99.90;;;10.49;51.51;93075.59;5061640;28;20188;-70
2021/04/28 06:26:04;;;;;;;13.10;11.00;;;10.00;99.90;;;10.47;51.59;93067.16;5051756;28;20221;-69
2021/04/28 06:28:30;;;;;;;16.27;11.60;;;10.00;99.90;;;10.37;51.27;93068.09;5087434;28;20658;-70
2021/04/28 06:30:56;;;;;;;13.80;11.23;;;9.90;99.90;;;10.35;51.66;93070.22;5087306;28;20190;-70
2021/04/28 06:33:25;;;;;;;14.90;10.87;;;10.10;99.90;;;10.25;52.13;93063.19;5069228;28;20196;-69
2021/04/28 06:35:55;;;;;;;14.07;11.37;;;9.80;99.90;;;10.17;51.55;93078.91;5050518;28;20226;-69
2021/04/28 06:38:24;;;;;;;12.70;11.27;;;9.80;99.90;;;10.16;51.72;93080.75;5084451;28;20184;-71
2021/04/28 06:40:53;;;;;;;15.25;12.32;;;9.80;99.90;;;10.11;52.01;93080.78;5068707;28;20984;-72
2021/04/28 06:43:20;;;;;;;14.50;12.00;;;9.70;99.90;;;10.13;51.96;93088.44;5059393;28;20653;-70
2021/04/28 06:45:46;;;;;;;16.07;13.10;;;9.70;99.90;;;10.18;52.19;93075.16;5067555;28;20680;-70
2021/04/28 06:48:12;;;;;;;14.33;11.40;;;9.80;99.90;;;10.18;52.06;93064.56;5066985;28;20189;-72
2021/04/28 06:50:38;;;;;;;14.27;11.77;;;9.70;99.90;;;10.15;52.48;93067.78;5046071;28;20189;-68
2021/04/28 06:53:04;;;;;;;14.83;11.27;;;9.70;99.90;;;10.15;52.37;93087.13;5068925;28;20220;-73
2021/04/28 06:55:30;;;;;;;12.90;11.17;;;9.70;99.90;;;10.34;52.13;93067.84;5049587;28;20280;-69
2021/04/28 06:58:00;;;;;;;15.20;11.83;;;9.80;99.90;;;10.19;52.25;93066.16;5090265;28;20185;-71
2021/04/28 07:00:29;;;;;;;13.47;11.57;;;9.70;99.90;;;10.34;52.22;93073.16;5076702;28;20668;-69
2021/04/28 07:02:56;;;;;;;17.97;12.93;;;9.80;99.90;;;10.48;52.43;93077.47;5085564;28;20189;-70
2021/04/28 07:05:24;;;;;;;16.40;13.43;;;10.00;99.90;;;10.54;52.37;93078.22;5083216;28;20190;-69
2021/04/28 07:07:54;;;;;;;17.00;13.50;;;10.00;99.90;;;10.69;52.71;93085.94;5058840;28;20183;-67
2021/04/28 07:10:21;;;;;;;17.83;13.80;;;10.20;99.90;;;10.80;52.79;93090.84;5057048;28;20190;-68
2021/04/28 07:12:48;;;;;;;20.37;17.20;;;10.30;99.90;;;10.82;53.03;93090.53;5058247;28;20437;-68
2021/04/28 07:15:16;;;;;;;16.87;13.47;;;10.30;99.90;;;11.16;53.01;93085.03;5039881;28;20542;-76
2021/04/28 07:17:47;;;;;;;15.93;13.43;;;10.60;99.90;;;11.24;53.26;93098.44;5056605;28;20238;-71
2021/04/28 07:20:17;;;;;;;17.67;13.70;;;10.70;99.90;;;11.37;52.96;93096.13;5067757;28;20182;-75
2021/04/28 07:22:43;;;;;;;15.90;13.67;;;10.80;99.90;;;11.43;53.23;93094.97;5063544;28;20599;-73
2021/04/28 07:25:11;;;;;;;18.73;13.30;;;11.00;99.90;;;11.45;53.28;93092.84;5069453;28;20196;-71
2021/04/28 07:27:38;;;;;;;17.03;13.30;;;11.00;99.90;;;11.49;53.50;93099.13;5061583;28;20177;-70
2021/04/28 07:30:07;;;;;;;18.23;13.67;;;11.00;99.90;;;11.56;53.50;93102.19;5073674;28;20732;-69
2021/04/28 07:32:35;;;;;;;17.17;14.13;;;11.10;99.90;;;11.63;53.22;93092.78;5057907;28;20220;-70
2021/04/28 07:35:08;;;;;;;17.43;14.20;;;11.20;99.90;;;11.67;53.41;93106.28;5071690;28;20242;-69
2021/04/28 07:37:34;;;;;;;16.07;12.67;;;11.10;99.90;;;11.67;53.52;93093.00;5080642;28;20279;-69
2021/04/28 07:40:02;;;;;;;16.80;14.73;;;11.20;99.90;;;11.69;53.56;93098.78;5065257;28;20476;-72
2021/04/28 07:42:30;;;;;;;18.57;13.93;;;11.20;99.90;;;11.92;53.27;93092.59;5078165;28;20196;-73
2021/04/28 07:44:57;;;;;;;18.67;13.23;;;11.40;99.90;;;12.04;53.93;93094.78;5083666;28;20192;-71
2021/04/28 07:47:23;;;;;;;16.80;12.73;;;11.50;99.90;;;12.29;53.76;93102.28;5054513;28;20221;-71
2021/04/28 07:49:49;;;;;;;14.93;13.00;;;11.80;99.90;;;12.56;53.70;93101.50;5057800;28;20236;-70
2021/04/28 07:52:15;;;;;;;16.63;14.80;;;12.00;99.90;;;12.64;53.79;93100.81;5064266;28;20944;-70
2021/04/28 07:54:41;;;;;;;17.23;13.13;;;12.10;99.90;;;12.94;54.04;93104.72;5064196;28;20545;-70
2021/04/28 07:57:13;;;;;;;14.83;13.23;;;12.40;99.90;;;13.35;53.98;93106.25;5070359;28;20194;-73
2021/04/28 07:59:44;;;;;;;14.13;12.67;;;12.70;99.90;;;13.75;54.31;93114.38;5078021;28;20185;-69
2021/04/28 08:02:10;;;;;;;14.50;12.10;;;12.30;99.90;;;14.00;54.04;93105.75;5049350;28;20206;-73
2021/04/28 08:04:39;;;;;;;20.30;12.30;;;13.50;99.90;;;14.35;54.19;93110.22;5080933;28;20209;-70
2021/04/28 08:07:09;;;;;;;13.43;12.10;;;13.90;99.90;;;14.97;54.36;93112.00;5078749;28;20260;-69
2021/04/28 08:09:36;;;;;;;14.57;11.27;;;14.30;99.90;;;15.22;54.37;93104.03;5063873;28;20266;-69
2021/04/28 08:12:06;;;;;;;12.77;11.47;;;14.70;99.90;;;15.54;54.25;93116.19;5063910;28;20199;-74
2021/04/28 08:14:32;;;;;;;12.93;10.33;;;15.10;99.90;;;16.05;54.12;93117.28;5053191;28;20253;-71
2021/04/28 08:16:58;;;;;;;11.93;10.73;;;15.60;99.90;;;16.09;54.13;93110.97;5071200;28;20208;-72
2021/04/28 08:19:27;;;;;;;12.88;11.68;;;15.80;99.90;;;15.92;54.25;93116.31;5067163;28;20446;-74
2021/04/28 08:21:55;;;;;;;12.77;11.13;;;16.00;99.90;;;16.38;54.07;93118.28;5061156;28;20179;-73
2021/04/28 08:24:23;;;;;;;14.27;10.70;;;16.30;99.90;;;16.97;54.15;93124.53;5072792;28;20196;-72
2021/04/28 08:26:49;;;;;;;13.77;11.27;;;16.70;99.90;;;17.30;54.11;93111.28;5050232;28;20184;-71
2021/04/28 08:29:18;;;;;;;12.40;10.47;;;17.20;99.90;;;17.80;53.96;93114.72;5053683;28;20187;-72
2021/04/28 08:31:44;;;;;;;12.50;11.20;;;17.60;99.90;;;18.13;54.13;93117.41;5053969;28;20291;-71
2021/04/28 08:34:11;;;;;;;12.03;10.77;;;18.00;99.90;;;18.04;53.68;93107.88;5070382;28;20205;-75
2021/04/28 08:36:37;;;;;;;12.67;10.93;;;18.00;99.90;;;18.41;53.53;93114.94;5066127;28;20225;-71
2021/04/28 08:39:11;;;;;;;12.40;10.83;;;18.30;99.90;;;18.67;53.52;93118.16;5036789;28;20574;-72
2021/04/28 08:41:40;;;;;;;14.00;11.23;;;18.50;99.90;;;19.17;53.50;93128.56;5073970;28;20317;-70
2021/04/28 08:44:07;;;;;;;13.07;11.30;;;19.00;99.90;;;19.49;53.43;93110.00;5069271;28;20180;-72
2021/04/28 08:46:36;;;;;;;11.20;10.07;;;19.50;99.90;;;19.96;53.29;93119.06;5057147;28;20267;-71
2021/04/28 08:49:07;;;;;;;11.57;10.30;;;19.90;99.90;;;20.10;53.13;93110.63;5074212;28;20360;-72
2021/04/28 08:51:36;;;;;;;11.13;10.03;;;20.10;99.90;;;20.28;53.08;93122.69;5065887;28;20213;-70
2021/04/28 08:54:02;;;;;;;10.47;9.47;;;20.30;99.90;;;20.99;52.89;93126.06;5053576;28;20237;-74
2021/04/28 08:56:31;;;;;;;10.67;9.67;;;21.00;99.90;;;21.37;52.65;93108.50;5045465;28;20196;-71
2021/04/28 08:59:04;;;;;;;12.20;10.40;;;21.60;98.60;;;21.94;52.65;93105.16;5074084;28;20193;-70
2021/04/28 09:01:39;;;;;;;12.20;10.50;;;22.20;97.90;;;21.96;52.53;93119.06;5053280;28;20897;-70
2021/04/28 09:04:16;;;;;;;11.00;9.93;;;22.40;96.30;;;22.18;52.61;93104.09;5071532;28;20193;-72
2021/04/28 09:06:43;;;;;;;10.70;9.27;;;22.70;95.10;;;22.61;51.79;93119.97;5091704;28;20713;-72
2021/04/28 09:09:18;;;;;;;11.87;9.67;;;23.00;94.60;;;22.91;51.91;93133.66;5076487;28;20529;-73
2021/04/28 09:11:48;;;;;;;10.07;9.07;;;23.40;93.10;;;23.47;51.40;93115.66;5068933;28;20568;-77
2021/04/28 09:14:32;;;;;;;10.35;9.35;;;23.70;92.10;;;23.31;51.69;93158.28;5086428;28;20440;-74
2021/04/28 09:17:07;;;;;;;9.87;8.43;;;24.30;90.30;;;24.92;51.40;93162.81;5072168;28;20187;-74
2021/04/28 09:19:40;;;;;;;10.20;9.17;;;25.40;87.60;;;26.05;50.85;93135.84;5062088;28;20175;-72
2021/04/28 09:22:09;;;;;;;9.52;8.57;;;26.80;82.00;;;25.74;50.67;93091.06;5082436;28;20471;-68
2021/04/28 09:24:51;;;;;;;8.30;7.50;;;27.30;77.90;;;26.60;50.50;93131.06;5050897;28;20179;-69
2021/04/28 09:27:42;;;;;;;8.60;7.80;;;27.80;75.50;;;26.45;50.19;93141.91;5075337;28;20577;-72
2021/04/28 09:30:23;;;;;;;8.57;6.47;;;27.60;73.80;;;27.22;50.00;93105.19;5088272;28;20189;-71
2021/04/28 09:33:01;;;;;;;7.30;4.93;;;28.50;69.30;;;26.98;49.79;93084.97;5052126;28;20294;-70
2021/04/28 09:35:27;;;;;;;8.40;4.87;;;28.20;67.70;;;27.05;49.22;93095.06;5066355;28;20240;-72
2021/04/28 09:38:01;;;;;;;5.60;5.10;;;28.00;68.80;;;27.70;48.68;93094.69;5052477;28;20204;-70
2021/04/28 09:40:44;;;;;;;6.13;4.43;;;28.50;65.60;;;29.51;48.34;93182.84;5064554;28;20307;-73
2021/04/28 09:43:12;;;;;;;6.20;3.13;;;30.30;60.30;;;30.38;48.03;93091.50;5049399;28;20231;-74
2021/04/28 09:45:46;;;;;;;4.93;3.17;;;31.80;56.00;;;30.18;47.37;93074.91;5088893;28;20190;-73
2021/04/28 09:48:25;;;;;;;4.50;3.60;;;32.10;55.70;;;30.76;47.25;93163.34;5069223;28;20657;-71
2021/04/28 09:51:09;;;;;;;3.83;3.00;;;32.30;54.10;;;33.40;46.50;93187.59;5054308;28;20633;-71
2021/04/28 09:53:35;;;;;;;4.50;2.67;;;35.20;48.70;;;35.99;45.91;93162.97;5101820;27;20718;-72
2021/04/28 09:56:02;;;;;;;5.57;3.50;;;38.00;47.90;;;37.97;45.27;93119.88;5054583;28;20251;-73
2021/04/28 09:58:53;;;;;;;6.43;3.05;;;40.50;43.70;;;36.87;44.63;93035.59;5069361;28;20264;-70
2021/04/28 10:01:34;;;;;;;5.10;3.05;;;40.40;41.60;;;38.81;43.57;93234.72;5070412;28;20171;-70
2021/04/28 10:04:02;;;;;;;4.57;3.63;;;42.40;42.30;;;38.06;43.51;93008.38;5099299;27;20187;-70
2021/04/28 10:06:50;;;;;;;4.85;3.10;;;42.70;39.30;;;39.26;42.49;93186.81;5073128;28;20186;-71
2021/04/28 10:09:37;;;;;;;5.15;2.90;;;43.20;38.90;;;40.33;41.93;93102.78;5077801;28;20197;-70
2021/04/28 10:12:11;;;;;;;4.05;3.00;;;44.50;37.70;;;40.26;40.57;93080.91;5071254;28;20304;-73
2021/04/28 10:14:40;;;;;;;5.60;3.20;;;44.90;37.20;;;38.62;40.64;92939.38;5066498;28;20261;-71
2021/04/28 10:17:09;;;;;;;5.60;2.65;;;43.80;37.00;;;36.27;40.16;92946.69;5083509;28;20277;-70
2021/04/28 10:19:38;;;;;;;5.10;2.92;;;41.80;37.50;;;35.29;39.63;92992.25;5065155;28;20198;-69
2021/04/28 10:22:14;;;;;;;3.75;2.53;;;40.10;39.20;;;34.63;39.49;93065.47;5074039;28;20212;-71
2021/04/28 10:24:45;;;;;;;4.32;2.30;;;38.90;39.60;;;34.72;38.71;93029.78;5074442;28;20558;-70
2021/04/28 10:27:17;;;;;;;3.50;2.10;;;38.40;39.90;;;34.28;38.35;93001.13;5073388;28;20213;-69
2021/04/28 10:29:48;;;;;;;4.15;2.22;;;37.80;38.70;;;31.83;38.69;92922.97;5071201;28;20175;-69